createdAt,value
2019-01-16T00:00:41.250Z,96951.00
2019-01-16T00:03:28.655Z,96954.00
2019-01-16T00:06:16.386Z,96942.00
2019-01-16T00:09:12.634Z,96939.00
2019-01-16T00:12:03.156Z,96941.00
2019-01-16T00:14:43.640Z,96943.00
2019-01-16T00:17:31.400Z,96950.00
2019-01-16T00:20:21.888Z,96939.00
2019-01-16T00:23:04.378Z,96948.00
2019-01-16T00:26:00.713Z,96941.00
2019-01-16T00:28:48.065Z,96939.00
2019-01-16T00:31:41.775Z,96940.00
2019-01-16T00:34:29.547Z,96940.00
2019-01-16T00:37:28.644Z,96941.00
2019-01-16T00:40:18.719Z,96934.00
2019-01-16T00:43:01.227Z,96935.00
2019-01-16T00:45:39.750Z,96784.00
2019-01-16T00:48:15.717Z,96933.00
2019-01-16T00:51:01.573Z,96943.00
2019-01-16T00:53:56.169Z,96935.00
2019-01-16T00:56:43.606Z,96938.00
2019-01-16T00:59:43.216Z,96938.00
2019-01-16T01:02:32.145Z,96937.00
2019-01-16T01:05:09.115Z,96925.00
2019-01-16T01:07:48.475Z,96935.00
2019-01-16T01:10:34.515Z,96914.00
2019-01-16T01:13:30.671Z,96929.00
2019-01-16T01:16:16.160Z,96926.00
2019-01-16T01:19:03.757Z,96917.00
2019-01-16T01:21:54.414Z,96939.00
2019-01-16T01:24:36.963Z,96934.00
2019-01-16T01:27:24.414Z,96940.00
2019-01-16T01:30:14.779Z,96930.00
2019-01-16T01:33:00.506Z,96944.00
2019-01-16T01:36:05.875Z,96928.00
2019-01-16T01:39:05.089Z,96945.00
2019-01-16T01:41:46.198Z,96951.00
2019-01-16T01:44:26.045Z,96942.00
2019-01-16T01:47:11.816Z,96941.00
2019-01-16T01:50:00.173Z,96946.00
2019-01-16T01:52:59.509Z,96945.00
2019-01-16T01:55:35.951Z,96941.00
2019-01-16T01:58:21.313Z,96939.00
2019-01-16T02:01:18.234Z,96940.00
2019-01-16T02:04:03.124Z,96941.00
2019-01-16T02:06:41.675Z,96932.00
2019-01-16T02:09:34.017Z,96947.00
2019-01-16T02:12:19.924Z,96953.00
2019-01-16T02:15:06.085Z,96944.00
2019-01-16T02:18:16.641Z,96948.00
2019-01-16T02:21:22.077Z,96949.00
2019-01-16T02:24:09.911Z,96938.00
2019-01-16T02:26:50.702Z,96931.00
2019-01-16T02:29:35.897Z,96938.00
2019-01-16T02:32:21.980Z,96952.00
2019-01-16T02:35:21.105Z,96944.00
2019-01-16T02:38:20.279Z,96932.00
2019-01-16T02:41:01.490Z,96942.00
2019-01-16T02:43:47.480Z,96938.00
2019-01-16T02:46:39.501Z,96932.00
2019-01-16T02:49:29.487Z,96936.00
2019-01-16T02:52:28.015Z,96920.00
2019-01-16T02:55:18.096Z,96933.00
2019-01-16T02:58:11.792Z,96929.00
2019-01-16T03:01:01.388Z,96924.00
2019-01-16T03:03:47.162Z,96920.00
2019-01-16T03:06:37.194Z,96921.00
2019-01-16T03:09:14.868Z,96918.00
2019-01-16T03:12:08.414Z,96923.00
2019-01-16T03:14:42.565Z,96922.00
2019-01-16T03:17:26.319Z,96911.00
2019-01-16T03:20:15.582Z,96918.00
2019-01-16T03:23:03.038Z,96907.00
2019-01-16T03:25:50.365Z,96912.00
2019-01-16T03:28:35.044Z,96918.00
2019-01-16T03:31:22.229Z,96909.00
2019-01-16T03:34:08.066Z,96915.00
2019-01-16T03:36:54.091Z,96914.00
2019-01-16T03:39:59.563Z,96909.00
2019-01-16T03:42:49.937Z,96903.00
2019-01-16T03:45:40.455Z,96902.00
2019-01-16T03:48:26.422Z,96907.00
2019-01-16T03:51:25.084Z,96902.00
2019-01-16T03:54:02.747Z,96900.00
2019-01-16T03:57:01.721Z,96910.00
2019-01-16T03:59:45.294Z,96907.00
2019-01-16T04:02:35.131Z,96902.00
2019-01-16T04:05:19.046Z,96910.00
2019-01-16T04:08:09.160Z,96903.00
2019-01-16T04:11:02.511Z,96904.00
2019-01-16T04:13:52.904Z,96907.00
2019-01-16T04:16:41.592Z,96909.00
2019-01-16T04:19:23.970Z,96909.00
2019-01-16T04:22:09.851Z,96904.00
2019-01-16T04:25:06.002Z,96908.00
2019-01-16T04:27:50.096Z,96905.00
2019-01-16T04:30:55.540Z,96915.00
2019-01-16T04:33:42.137Z,96914.00
2019-01-16T04:36:29.835Z,96911.00
2019-01-16T04:39:26.190Z,96918.00
2019-01-16T04:42:16.760Z,96916.00
2019-01-16T04:45:04.103Z,96913.00
2019-01-16T04:47:57.256Z,96907.00
2019-01-16T04:50:53.463Z,96920.00
2019-01-16T04:53:39.499Z,96912.00
2019-01-16T04:56:25.219Z,96912.00
2019-01-16T04:59:15.644Z,96916.00
2019-01-16T05:02:18.569Z,96907.00
2019-01-16T05:05:04.360Z,96914.00
2019-01-16T05:07:54.402Z,96895.00
2019-01-16T05:10:42.163Z,96900.00
2019-01-16T05:13:28.759Z,96908.00
2019-01-16T05:16:12.625Z,96899.00
2019-01-16T05:18:58.948Z,96886.00
2019-01-16T05:21:44.751Z,96891.00
2019-01-16T05:24:32.483Z,96902.00
2019-01-16T05:27:28.652Z,96888.00
2019-01-16T05:30:13.639Z,96894.00
2019-01-16T05:32:49.511Z,96886.00
2019-01-16T05:35:46.082Z,96877.00
2019-01-16T05:38:31.640Z,96886.00
2019-01-16T05:41:17.771Z,96875.00
2019-01-16T05:44:05.388Z,96885.00
2019-01-16T05:46:58.772Z,96874.00
2019-01-16T05:49:51.628Z,96873.00
2019-01-16T05:52:32.589Z,96863.00
2019-01-16T05:55:19.604Z,96866.00
2019-01-16T05:58:05.383Z,96870.00
2019-01-16T06:00:55.814Z,96862.00
2019-01-16T06:03:34.568Z,96858.00
2019-01-16T06:06:20.675Z,96857.00
2019-01-16T06:09:10.721Z,96863.00
2019-01-16T06:11:54.052Z,96853.00
2019-01-16T06:14:37.531Z,96853.00
2019-01-16T06:17:23.646Z,96859.00
2019-01-16T06:20:09.712Z,96853.00
2019-01-16T06:23:10.320Z,96857.00
2019-01-16T06:26:12.939Z,96862.00
2019-01-16T06:29:00.232Z,96851.00
2019-01-16T06:31:46.981Z,96859.00
2019-01-16T06:34:32.732Z,96862.00
2019-01-16T06:37:18.370Z,96847.00
2019-01-16T06:39:55.691Z,96844.00
2019-01-16T06:42:46.104Z,96849.00
2019-01-16T06:45:42.063Z,96855.00
2019-01-16T06:48:34.344Z,96859.00
2019-01-16T06:51:17.816Z,96865.00
2019-01-16T06:53:57.966Z,96864.00
2019-01-16T06:56:48.199Z,96863.00
2019-01-16T06:59:27.072Z,96871.00
2019-01-16T07:02:05.224Z,96871.00
2019-01-16T07:04:54.450Z,96871.00
2019-01-16T07:07:45.701Z,96876.00
2019-01-16T07:10:23.072Z,96884.00
2019-01-16T07:13:19.165Z,96880.00
2019-01-16T07:15:57.607Z,96886.00
2019-01-16T07:18:41.158Z,96874.00
2019-01-16T07:21:22.492Z,96869.00
2019-01-16T07:24:08.147Z,96876.00
2019-01-16T07:26:47.164Z,96870.00
2019-01-16T07:29:37.175Z,96885.00
2019-01-16T07:32:33.476Z,96884.00
2019-01-16T07:35:29.807Z,96883.00
2019-01-16T07:38:09.886Z,96880.00
2019-01-16T07:41:01.513Z,96872.00
2019-01-16T07:44:04.221Z,96881.00
2019-01-16T07:46:44.600Z,96876.00
2019-01-16T07:49:40.732Z,96879.00
2019-01-16T07:52:29.228Z,96871.00
2019-01-16T07:55:22.835Z,96885.00
2019-01-16T07:57:58.938Z,96893.00
2019-01-16T08:00:51.979Z,96880.00
2019-01-16T08:03:37.699Z,96886.00
2019-01-16T08:06:28.316Z,96886.00
2019-01-16T08:09:19.486Z,96881.00
2019-01-16T08:12:05.796Z,96873.00
2019-01-16T08:14:51.954Z,96879.00
2019-01-16T08:17:26.920Z,96872.00
2019-01-16T08:20:14.016Z,96878.00
2019-01-16T08:22:52.960Z,96871.00
2019-01-16T08:25:33.251Z,96869.00
2019-01-16T08:28:11.814Z,96874.00
2019-01-16T08:31:10.902Z,96868.00
2019-01-16T08:34:01.496Z,96870.00
2019-01-16T08:36:57.912Z,96860.00
2019-01-16T08:39:41.386Z,96863.00
2019-01-16T08:42:27.088Z,96858.00
2019-01-16T08:45:17.320Z,96865.00
2019-01-16T08:48:07.291Z,96866.00
2019-01-16T08:51:00.776Z,96871.00
2019-01-16T08:53:48.300Z,96873.00
2019-01-16T08:56:34.077Z,96877.00
2019-01-16T08:59:33.524Z,96874.00
2019-01-16T09:02:21.116Z,96868.00
2019-01-16T09:05:14.998Z,96865.00
2019-01-16T09:08:08.700Z,96873.00
2019-01-16T09:10:54.675Z,96876.00
2019-01-16T09:13:42.669Z,96871.00
2019-01-16T09:16:36.177Z,96871.00
2019-01-16T09:19:19.491Z,96875.00
2019-01-16T09:21:54.834Z,96873.00
2019-01-16T09:24:47.961Z,96875.00
2019-01-16T09:27:47.164Z,96882.00
2019-01-16T09:30:40.391Z,96882.00
2019-01-16T09:33:24.778Z,96870.00
2019-01-16T09:36:18.440Z,96879.00
2019-01-16T09:39:15.186Z,96884.00
2019-01-16T09:42:14.787Z,96877.00
2019-01-16T09:45:00.752Z,96874.00
2019-01-16T09:47:48.149Z,96874.00
2019-01-16T09:50:29.331Z,96873.00
2019-01-16T09:53:04.136Z,96874.00
2019-01-16T09:55:41.728Z,96869.00
2019-01-16T09:58:31.729Z,96876.00
2019-01-16T10:01:25.182Z,96869.00
2019-01-16T10:04:10.924Z,96868.00
2019-01-16T10:07:02.362Z,96861.00
2019-01-16T10:09:43.787Z,96862.00
2019-01-16T10:12:39.528Z,96857.00
2019-01-16T10:15:26.717Z,96852.00
2019-01-16T10:18:11.681Z,96853.00
2019-01-16T10:20:56.291Z,96849.00
2019-01-16T10:23:50.343Z,96833.00
2019-01-16T10:26:37.777Z,96837.00
2019-01-16T10:29:20.259Z,96848.00
2019-01-16T10:31:55.191Z,96840.00
2019-01-16T10:34:45.547Z,96825.00
2019-01-16T10:37:33.160Z,96825.00
2019-01-16T10:40:18.944Z,96822.00
2019-01-16T10:43:06.617Z,96829.00
2019-01-16T10:45:53.631Z,96802.00
2019-01-16T10:48:56.245Z,96799.00
2019-01-16T10:51:55.724Z,96790.00
2019-01-16T10:54:34.208Z,96714.00
2019-01-16T10:57:33.800Z,96783.00
2019-01-16T11:00:24.465Z,96784.00
2019-01-16T11:03:23.741Z,96774.00
2019-01-16T11:06:29.276Z,96774.00
2019-01-16T11:09:22.540Z,96765.00
2019-01-16T11:12:13.113Z,96777.00
2019-01-16T11:14:59.124Z,96765.00
2019-01-16T11:17:46.828Z,96778.00
2019-01-16T11:20:34.755Z,96760.00
2019-01-16T11:23:22.428Z,96760.00
2019-01-16T11:26:15.594Z,96746.00
2019-01-16T11:29:20.325Z,96741.00
2019-01-16T11:32:03.940Z,96731.00
2019-01-16T11:35:00.632Z,96712.00
2019-01-16T11:37:50.920Z,96701.00
2019-01-16T11:40:38.902Z,96697.00
2019-01-16T11:43:15.284Z,96699.00
2019-01-16T11:46:01.091Z,96692.00
2019-01-16T11:48:46.943Z,96678.00
2019-01-16T11:51:33.752Z,96687.00
2019-01-16T11:54:24.556Z,96686.00
2019-01-16T11:57:17.416Z,96685.00
2019-01-16T12:00:10.335Z,96678.00
2019-01-16T12:03:11.776Z,96654.00
2019-01-16T12:06:14.843Z,96643.00
2019-01-16T12:09:00.724Z,96654.00
2019-01-16T12:11:46.936Z,96639.00
2019-01-16T12:14:37.596Z,96638.00
2019-01-16T12:17:34.276Z,96655.00
2019-01-16T12:20:13.572Z,96660.00
2019-01-16T12:23:04.662Z,96642.00
2019-01-16T12:25:52.102Z,96650.00
2019-01-16T12:28:38.180Z,96644.00
2019-01-16T12:31:23.163Z,96644.00
2019-01-16T12:34:09.455Z,96654.00
2019-01-16T12:36:56.896Z,96639.00
2019-01-16T12:39:42.755Z,96645.00
2019-01-16T12:42:41.904Z,96619.00
2019-01-16T12:45:35.295Z,96620.00
2019-01-16T12:48:14.138Z,96628.00
2019-01-16T12:50:55.878Z,96626.00
2019-01-16T12:53:43.163Z,96622.00
2019-01-16T12:56:39.828Z,96606.00
2019-01-16T12:59:36.136Z,96604.00
2019-01-16T13:02:20.884Z,96612.00
2019-01-16T13:05:14.523Z,96581.00
2019-01-16T13:08:00.193Z,96580.00
2019-01-16T13:10:56.393Z,96589.00
2019-01-16T13:13:44.260Z,96590.00
2019-01-16T13:16:43.773Z,96578.00
2019-01-16T13:19:23.012Z,96560.00
2019-01-16T13:22:16.131Z,96558.00
2019-01-16T13:25:02.989Z,96557.00
2019-01-16T13:27:56.288Z,96543.00
2019-01-16T13:30:34.562Z,96535.00
2019-01-16T13:33:20.538Z,96536.00
2019-01-16T13:36:10.671Z,96539.00
2019-01-16T13:39:13.074Z,96534.00
2019-01-16T13:41:48.652Z,96536.00
2019-01-16T13:44:38.974Z,96542.00
2019-01-16T13:47:29.300Z,96538.00
2019-01-16T13:50:25.602Z,96525.00
2019-01-16T13:53:13.367Z,96516.00
2019-01-16T13:55:52.042Z,96505.00
2019-01-16T13:58:27.488Z,96522.00
2019-01-16T14:01:17.760Z,96507.00
2019-01-16T14:04:05.210Z,96519.00
2019-01-16T14:06:56.537Z,96503.00
2019-01-16T14:09:44.096Z,96486.00
2019-01-16T14:12:37.554Z,96499.00
2019-01-16T14:15:26.629Z,96499.00
2019-01-16T14:18:23.996Z,96496.00
2019-01-16T14:21:09.781Z,96485.00
2019-01-16T14:23:58.654Z,96485.00
2019-01-16T14:26:37.033Z,96489.00
2019-01-16T14:29:33.477Z,96498.00
2019-01-16T14:32:15.285Z,96487.00
2019-01-16T14:35:02.595Z,96472.00
2019-01-16T14:37:48.400Z,96463.00
2019-01-16T14:40:44.538Z,96475.00
2019-01-16T14:43:31.994Z,96469.00
2019-01-16T14:46:22.305Z,96464.00
2019-01-16T14:49:12.837Z,96461.00
2019-01-16T14:51:59.847Z,96441.00
2019-01-16T14:54:43.489Z,96449.00
2019-01-16T14:57:29.532Z,96463.00
2019-01-16T15:00:25.009Z,96450.00
2019-01-16T15:03:21.010Z,96441.00
2019-01-16T15:06:17.471Z,96451.00
2019-01-16T15:09:03.768Z,96454.00
2019-01-16T15:11:50.467Z,96435.00
2019-01-16T15:14:36.405Z,96441.00
2019-01-16T15:17:15.385Z,96455.00
2019-01-16T15:19:59.235Z,96432.00
2019-01-16T15:22:45.027Z,96435.00
2019-01-16T15:25:35.142Z,96450.00
2019-01-16T15:28:31.262Z,96439.00
2019-01-16T15:31:18.763Z,96440.00
2019-01-16T15:34:04.490Z,96432.00
2019-01-16T15:36:56.635Z,96439.00
2019-01-16T15:39:35.545Z,96423.00
2019-01-16T15:42:28.954Z,96420.00
2019-01-16T15:45:16.208Z,96420.00
2019-01-16T15:48:15.409Z,96417.00
2019-01-16T15:51:03.107Z,96420.00
2019-01-16T15:53:56.325Z,96412.00
2019-01-16T15:56:49.179Z,96422.00
2019-01-16T15:59:26.023Z,96418.00
2019-01-16T16:02:22.055Z,96412.00
2019-01-16T16:05:11.329Z,96424.00
2019-01-16T16:08:14.182Z,96412.00
2019-01-16T16:11:01.543Z,96405.00
2019-01-16T16:13:40.933Z,96394.00
2019-01-16T16:16:23.104Z,96396.00
2019-01-16T16:19:04.667Z,96387.00
2019-01-16T16:21:56.331Z,96383.00
2019-01-16T16:24:36.513Z,96386.00
2019-01-16T16:27:16.218Z,96376.00
2019-01-16T16:29:56.844Z,96384.00
2019-01-16T16:32:38.423Z,96387.00
2019-01-16T16:35:28.922Z,96388.00
2019-01-16T16:38:31.148Z,96388.00
2019-01-16T16:41:25.827Z,96390.00
2019-01-16T16:44:11.705Z,96391.00
2019-01-16T16:47:01.796Z,96383.00
2019-01-16T16:49:41.652Z,96375.00
2019-01-16T16:52:27.589Z,96372.00
2019-01-16T16:55:15.276Z,96358.00
2019-01-16T16:57:53.438Z,96352.00
2019-01-16T17:00:39.684Z,96349.00
2019-01-16T17:03:32.553Z,96353.00
2019-01-16T17:06:14.792Z,96358.00
2019-01-16T17:08:57.507Z,96363.00
2019-01-16T17:11:43.301Z,96352.00
2019-01-16T17:14:33.687Z,96351.00
2019-01-16T17:17:38.984Z,96347.00
2019-01-16T17:20:15.575Z,96341.00
2019-01-16T17:23:06.388Z,96333.00
2019-01-16T17:25:56.829Z,96332.00
2019-01-16T17:28:42.688Z,96323.00
2019-01-16T17:31:33.410Z,96306.00
2019-01-16T17:34:23.543Z,96311.00
2019-01-16T17:37:14.707Z,96314.00
2019-01-16T17:40:04.912Z,96306.00
2019-01-16T17:42:58.749Z,96285.00
2019-01-16T17:46:01.530Z,96286.00
2019-01-16T17:48:47.276Z,96280.00
2019-01-16T17:51:33.303Z,96281.00
2019-01-16T17:54:14.250Z,96287.00
2019-01-16T17:57:07.605Z,96279.00
2019-01-16T17:59:53.696Z,96276.00
2019-01-16T18:02:30.594Z,96273.00
2019-01-16T18:05:08.314Z,96279.00
2019-01-16T18:07:46.500Z,96257.00
2019-01-16T18:10:28.383Z,96269.00
2019-01-16T18:13:18.430Z,96257.00
2019-01-16T18:16:08.771Z,96271.00
2019-01-16T18:18:45.656Z,96259.00
2019-01-16T18:21:22.042Z,96262.00
2019-01-16T18:24:09.610Z,96252.00
2019-01-16T18:27:02.457Z,96248.00
2019-01-16T18:29:39.303Z,96251.00
2019-01-16T18:32:30.540Z,96253.00
2019-01-16T18:35:16.537Z,96144.00
2019-01-16T18:38:02.586Z,96233.00
2019-01-16T18:40:52.603Z,96237.00
2019-01-16T18:43:48.919Z,96238.00
2019-01-16T18:46:34.855Z,96241.00
2019-01-16T18:49:31.016Z,96232.00
2019-01-16T18:52:36.900Z,96222.00
2019-01-16T18:55:30.564Z,96219.00
2019-01-16T18:58:18.020Z,96219.00
2019-01-16T19:00:58.312Z,96205.00
2019-01-16T19:03:40.377Z,96201.00
2019-01-16T19:06:27.249Z,96207.00
2019-01-16T19:09:23.864Z,96219.00
2019-01-16T19:12:14.192Z,96205.00
2019-01-16T19:14:57.479Z,96192.00
2019-01-16T19:17:48.029Z,96201.00
2019-01-16T19:20:34.508Z,96195.00
2019-01-16T19:23:29.324Z,96204.00
2019-01-16T19:26:12.480Z,96205.00
2019-01-16T19:29:12.913Z,96201.00
2019-01-16T19:31:59.218Z,96188.00
2019-01-16T19:34:33.873Z,96172.00
2019-01-16T19:37:19.748Z,96183.00
2019-01-16T19:40:15.602Z,96190.00
2019-01-16T19:42:51.724Z,96189.00
2019-01-16T19:45:37.671Z,96184.00
2019-01-16T19:48:31.127Z,96194.00
2019-01-16T19:51:33.303Z,96203.00
2019-01-16T19:54:19.195Z,96195.00
2019-01-16T19:57:08.905Z,96186.00
2019-01-16T19:59:54.413Z,96181.00
2019-01-16T20:02:40.398Z,96187.00
2019-01-16T20:05:41.115Z,96184.00
2019-01-16T20:08:39.799Z,96190.00
2019-01-16T20:11:25.764Z,96183.00
2019-01-16T20:14:11.571Z,96180.00
2019-01-16T20:16:53.108Z,96184.00
2019-01-16T20:19:58.623Z,96176.00
2019-01-16T20:22:44.603Z,96168.00
2019-01-16T20:25:32.143Z,96156.00
2019-01-16T20:28:18.305Z,96197.00
2019-01-16T20:31:04.254Z,96168.00
2019-01-16T20:33:49.223Z,96163.00
2019-01-16T20:36:25.860Z,96162.00
2019-01-16T20:39:12.191Z,96169.00
2019-01-16T20:42:14.460Z,96166.00
2019-01-16T20:45:00.223Z,96168.00
2019-01-16T20:47:53.664Z,96169.00
2019-01-16T20:50:43.743Z,96155.00
2019-01-16T20:53:34.136Z,96155.00
2019-01-16T20:56:14.572Z,96156.00
2019-01-16T20:59:00.963Z,96162.00
2019-01-16T21:01:46.863Z,96145.00
2019-01-16T21:04:32.798Z,96144.00
2019-01-16T21:07:32.413Z,96158.00
2019-01-16T21:10:13.604Z,96147.00
2019-01-16T21:13:12.767Z,96137.00
2019-01-16T21:15:51.921Z,96143.00
2019-01-16T21:18:27.020Z,96141.00
2019-01-16T21:21:13.512Z,96125.00
2019-01-16T21:23:59.939Z,96115.00
2019-01-16T21:26:56.409Z,96127.00
2019-01-16T21:29:42.704Z,96126.00
2019-01-16T21:32:42.173Z,96128.00
2019-01-16T21:35:35.575Z,96097.00
2019-01-16T21:38:28.694Z,96098.00
2019-01-16T21:41:16.092Z,96110.00
2019-01-16T21:44:05.988Z,96097.00
2019-01-16T21:46:43.411Z,96090.00
2019-01-16T21:49:29.109Z,96081.00
2019-01-16T21:52:26.702Z,96083.00
2019-01-16T21:55:12.719Z,96095.00
2019-01-16T21:58:11.865Z,96101.00
2019-01-16T22:01:05.002Z,96089.00
2019-01-16T22:04:04.523Z,96089.00
2019-01-16T22:06:50.463Z,96100.00
2019-01-16T22:09:55.775Z,96078.00
2019-01-16T22:12:43.488Z,96083.00
2019-01-16T22:15:31.592Z,96082.00
2019-01-16T22:18:12.958Z,96095.00
2019-01-16T22:20:59.224Z,96082.00
2019-01-16T22:23:44.632Z,96074.00
2019-01-16T22:26:34.903Z,96069.00
2019-01-16T22:29:40.929Z,96075.00
2019-01-16T22:32:43.060Z,96075.00
2019-01-16T22:35:33.055Z,96080.00
2019-01-16T22:38:12.300Z,96069.00
2019-01-16T22:40:58.002Z,96071.00
2019-01-16T22:43:43.711Z,96057.00
2019-01-16T22:46:36.788Z,96064.00
2019-01-16T22:49:11.774Z,96070.00
2019-01-16T22:51:57.786Z,96062.00
2019-01-16T22:54:47.829Z,96037.00
2019-01-16T22:57:38.163Z,96037.00
2019-01-16T23:00:36.057Z,96011.00
2019-01-16T23:03:19.191Z,96009.00
2019-01-16T23:05:58.944Z,96013.00
2019-01-16T23:08:47.549Z,96023.00
2019-01-16T23:11:28.898Z,96011.00
2019-01-16T23:14:02.268Z,96019.00
2019-01-16T23:16:53.888Z,96009.00
2019-01-16T23:19:39.956Z,96024.00
2019-01-16T23:22:27.352Z,96025.00
2019-01-16T23:25:13.552Z,96012.00
2019-01-16T23:28:01.065Z,96014.00
2019-01-16T23:30:57.779Z,96004.00
2019-01-16T23:33:54.108Z,95994.00
2019-01-16T23:36:40.275Z,95992.00
2019-01-16T23:39:33.641Z,95985.00
2019-01-16T23:42:26.851Z,95987.00
2019-01-16T23:45:15.528Z,95977.00
2019-01-16T23:48:18.056Z,95959.00
2019-01-16T23:51:03.689Z,95965.00
2019-01-16T23:53:41.502Z,95966.00
2019-01-16T23:56:18.001Z,95962.00
2019-01-16T23:59:14.441Z,95986.00
